sensor_id;sensor_type;location;lat;lon;timestamp;temperature;humidity
148;DHT22;142;50.652;12.216;2023-04-07T00:01:02;2.50;37.70
148;DHT22;142;50.652;12.216;2023-04-07T00:03:29;2.50;37.70
148;DHT22;142;50.652;12.216;2023-04-07T00:05:56;2.40;37.60
148;DHT22;142;50.652;12.216;2023-04-07T00:08:23;2.40;37.20
148;DHT22;142;50.652;12.216;2023-04-07T00:10:51;2.40;36.60
148;DHT22;142;50.652;12.216;2023-04-07T00:13:18;2.40;36.20
148;DHT22;142;50.652;12.216;2023-04-07T00:15:45;2.40;35.90
148;DHT22;142;50.652;12.216;2023-04-07T00:18:14;2.40;35.70
148;DHT22;142;50.652;12.216;2023-04-07T00:20:41;2.40;35.70
148;DHT22;142;50.652;12.216;2023-04-07T00:23:08;2.40;35.80
148;DHT22;142;50.652;12.216;2023-04-07T00:25:35;2.40;35.80
148;DHT22;142;50.652;12.216;2023-04-07T00:28:03;2.40;35.80
148;DHT22;142;50.652;12.216;2023-04-07T00:30:30;2.30;35.70
148;DHT22;142;50.652;12.216;2023-04-07T00:32:57;2.30;35.60
148;DHT22;142;50.652;12.216;2023-04-07T00:35:26;2.30;35.30
148;DHT22;142;50.652;12.216;2023-04-07T00:37:53;2.30;35.10
148;DHT22;142;50.652;12.216;2023-04-07T00:40:20;2.30;35.00
148;DHT22;142;50.652;12.216;2023-04-07T00:42:47;2.20;35.00
148;DHT22;142;50.652;12.216;2023-04-07T00:45:14;2.20;35.00
148;DHT22;142;50.652;12.216;2023-04-07T00:47:41;2.20;34.90
148;DHT22;142;50.652;12.216;2023-04-07T00:50:09;2.20;34.40
148;DHT22;142;50.652;12.216;2023-04-07T00:52:38;2.10;33.90
148;DHT22;142;50.652;12.216;2023-04-07T00:55:07;2.10;33.80
148;DHT22;142;50.652;12.216;2023-04-07T00:57:34;2.10;33.30
148;DHT22;142;50.652;12.216;2023-04-07T01:00:02;2.10;33.00
148;DHT22;142;50.652;12.216;2023-04-07T01:02:34;2.10;32.80
148;DHT22;142;50.652;12.216;2023-04-07T01:05:12;2.10;32.40
148;DHT22;142;50.652;12.216;2023-04-07T01:07:50;2.00;32.00
148;DHT22;142;50.652;12.216;2023-04-07T01:10:24;2.00;31.90
148;DHT22;142;50.652;12.216;2023-04-07T01:12:58;2.00;31.40
148;DHT22;142;50.652;12.216;2023-04-07T01:15:29;1.90;31.20
148;DHT22;142;50.652;12.216;2023-04-07T01:18:03;1.90;30.70
148;DHT22;142;50.652;12.216;2023-04-07T01:20:34;1.80;30.50
148;DHT22;142;50.652;12.216;2023-04-07T01:23:05;1.80;30.10
148;DHT22;142;50.652;12.216;2023-04-07T01:25:53;1.80;29.10
148;DHT22;142;50.652;12.216;2023-04-07T01:28:48;1.80;28.10
148;DHT22;142;50.652;12.216;2023-04-07T01:31:22;1.80;27.60
148;DHT22;142;50.652;12.216;2023-04-07T01:33:52;1.70;27.50
148;DHT22;142;50.652;12.216;2023-04-07T01:36:21;1.70;27.10
148;DHT22;142;50.652;12.216;2023-04-07T01:38:50;1.80;26.80
148;DHT22;142;50.652;12.216;2023-04-07T01:41:18;1.70;26.70
148;DHT22;142;50.652;12.216;2023-04-07T01:43:46;1.70;26.40
148;DHT22;142;50.652;12.216;2023-04-07T01:46:14;1.70;26.10
148;DHT22;142;50.652;12.216;2023-04-07T01:48:43;1.70;25.90
148;DHT22;142;50.652;12.216;2023-04-07T01:51:11;1.70;25.80
148;DHT22;142;50.652;12.216;2023-04-07T01:53:42;1.70;25.60
148;DHT22;142;50.652;12.216;2023-04-07T01:56:09;1.70;25.30
148;DHT22;142;50.652;12.216;2023-04-07T01:58:37;1.70;25.20
148;DHT22;142;50.652;12.216;2023-04-07T02:01:04;1.60;25.20
148;DHT22;142;50.652;12.216;2023-04-07T02:03:48;1.60;24.90
148;DHT22;142;50.652;12.216;2023-04-07T02:06:20;1.60;24.70
148;DHT22;142;50.652;12.216;2023-04-07T02:08:51;1.50;24.60
148;DHT22;142;50.652;12.216;2023-04-07T02:11:21;1.60;24.30
148;DHT22;142;50.652;12.216;2023-04-07T02:13:52;1.60;24.20
148;DHT22;142;50.652;12.216;2023-04-07T02:16:21;1.60;24.20
148;DHT22;142;50.652;12.216;2023-04-07T02:18:50;1.60;24.10
148;DHT22;142;50.652;12.216;2023-04-07T02:21:18;1.60;24.20
148;DHT22;142;50.652;12.216;2023-04-07T02:23:46;1.50;24.10
148;DHT22;142;50.652;12.216;2023-04-07T02:26:13;1.50;24.10
148;DHT22;142;50.652;12.216;2023-04-07T02:28:40;1.50;24.10
148;DHT22;142;50.652;12.216;2023-04-07T02:31:07;1.50;24.00
148;DHT22;142;50.652;12.216;2023-04-07T02:33:34;1.50;24.00
148;DHT22;142;50.652;12.216;2023-04-07T02:36:03;1.50;24.00
148;DHT22;142;50.652;12.216;2023-04-07T02:38:31;1.50;23.90
148;DHT22;142;50.652;12.216;2023-04-07T02:40:58;1.50;23.90
148;DHT22;142;50.652;12.216;2023-04-07T02:43:25;1.40;23.90
148;DHT22;142;50.652;12.216;2023-04-07T02:45:52;1.40;23.90
148;DHT22;142;50.652;12.216;2023-04-07T02:48:19;1.40;23.90
148;DHT22;142;50.652;12.216;2023-04-07T02:50:47;1.40;23.80
148;DHT22;142;50.652;12.216;2023-04-07T02:53:15;1.40;23.90
148;DHT22;142;50.652;12.216;2023-04-07T02:55:42;1.40;23.80
148;DHT22;142;50.652;12.216;2023-04-07T02:58:09;1.40;23.90
148;DHT22;142;50.652;12.216;2023-04-07T03:00:36;1.40;23.90
148;DHT22;142;50.652;12.216;2023-04-07T03:03:03;1.40;23.90
148;DHT22;142;50.652;12.216;2023-04-07T03:05:31;1.30;23.80
148;DHT22;142;50.652;12.216;2023-04-07T03:07:59;1.30;23.90
148;DHT22;142;50.652;12.216;2023-04-07T03:10:27;1.30;23.80
148;DHT22;142;50.652;12.216;2023-04-07T03:12:55;1.30;23.90
148;DHT22;142;50.652;12.216;2023-04-07T03:15:22;1.30;23.80
148;DHT22;142;50.652;12.216;2023-04-07T03:17:49;1.20;23.80
148;DHT22;142;50.652;12.216;2023-04-07T03:20:17;1.20;23.80
148;DHT22;142;50.652;12.216;2023-04-07T03:22:44;1.20;23.80
148;DHT22;142;50.652;12.216;2023-04-07T03:25:12;1.20;23.80
148;DHT22;142;50.652;12.216;2023-04-07T03:27:41;1.10;23.80
148;DHT22;142;50.652;12.216;2023-04-07T03:30:09;1.10;23.80
148;DHT22;142;50.652;12.216;2023-04-07T03:32:36;1.10;23.80
148;DHT22;142;50.652;12.216;2023-04-07T03:35:04;1.10;23.80
148;DHT22;142;50.652;12.216;2023-04-07T03:37:31;1.00;23.80
148;DHT22;142;50.652;12.216;2023-04-07T03:39:59;1.00;23.90
148;DHT22;142;50.652;12.216;2023-04-07T03:42:26;1.00;23.80
148;DHT22;142;50.652;12.216;2023-04-07T03:44:55;1.10;23.90
148;DHT22;142;50.652;12.216;2023-04-07T03:47:22;1.10;23.90
148;DHT22;142;50.652;12.216;2023-04-07T03:49:49;1.00;24.00
148;DHT22;142;50.652;12.216;2023-04-07T03:52:17;1.00;23.90
148;DHT22;142;50.652;12.216;2023-04-07T03:54:44;1.00;23.90
148;DHT22;142;50.652;12.216;2023-04-07T03:57:11;1.00;24.00
148;DHT22;142;50.652;12.216;2023-04-07T03:59:38;1.00;23.90
148;DHT22;142;50.652;12.216;2023-04-07T04:02:07;1.00;23.90
148;DHT22;142;50.652;12.216;2023-04-07T04:04:34;1.00;23.90
148;DHT22;142;50.652;12.216;2023-04-07T04:07:01;0.90;23.90
148;DHT22;142;50.652;12.216;2023-04-07T04:09:29;0.90;24.00
148;DHT22;142;50.652;12.216;2023-04-07T04:11:57;1.00;24.00
148;DHT22;142;50.652;12.216;2023-04-07T04:14:24;0.90;24.00
148;DHT22;142;50.652;12.216;2023-04-07T04:16:52;0.90;24.00
148;DHT22;142;50.652;12.216;2023-04-07T04:19:21;1.00;24.00
148;DHT22;142;50.652;12.216;2023-04-07T04:21:48;0.90;23.90
148;DHT22;142;50.652;12.216;2023-04-07T04:24:15;0.90;24.00
148;DHT22;142;50.652;12.216;2023-04-07T04:26:43;0.80;24.00
148;DHT22;142;50.652;12.216;2023-04-07T04:29:10;0.80;24.00
148;DHT22;142;50.652;12.216;2023-04-07T04:31:37;0.80;24.00
148;DHT22;142;50.652;12.216;2023-04-07T04:34:05;0.90;24.00
148;DHT22;142;50.652;12.216;2023-04-07T04:36:34;0.80;24.00
148;DHT22;142;50.652;12.216;2023-04-07T04:39:01;0.80;24.00
148;DHT22;142;50.652;12.216;2023-04-07T04:41:28;0.80;24.00
148;DHT22;142;50.652;12.216;2023-04-07T04:43:55;0.80;24.00
148;DHT22;142;50.652;12.216;2023-04-07T04:46:24;0.80;24.00
148;DHT22;142;50.652;12.216;2023-04-07T04:48:52;0.80;24.00
148;DHT22;142;50.652;12.216;2023-04-07T04:51:19;0.80;24.00
148;DHT22;142;50.652;12.216;2023-04-07T04:53:47;0.80;24.00
148;DHT22;142;50.652;12.216;2023-04-07T04:56:15;0.90;24.10
148;DHT22;142;50.652;12.216;2023-04-07T04:58:42;0.90;24.00
148;DHT22;142;50.652;12.216;2023-04-07T05:01:11;1.00;23.90
148;DHT22;142;50.652;12.216;2023-04-07T05:03:38;1.30;23.90
148;DHT22;142;50.652;12.216;2023-04-07T05:06:06;1.40;24.20
148;DHT22;142;50.652;12.216;2023-04-07T05:08:33;1.50;24.10
148;DHT22;142;50.652;12.216;2023-04-07T05:11:02;1.50;24.00
148;DHT22;142;50.652;12.216;2023-04-07T05:13:29;1.60;23.90
148;DHT22;142;50.652;12.216;2023-04-07T05:15:56;1.70;24.00
148;DHT22;142;50.652;12.216;2023-04-07T05:18:24;1.70;23.90
148;DHT22;142;50.652;12.216;2023-04-07T05:20:51;1.80;23.80
148;DHT22;142;50.652;12.216;2023-04-07T05:23:19;1.80;23.90
148;DHT22;142;50.652;12.216;2023-04-07T05:25:47;1.90;23.90
148;DHT22;142;50.652;12.216;2023-04-07T05:28:16;1.90;23.90
148;DHT22;142;50.652;12.216;2023-04-07T05:30:43;1.90;23.70
148;DHT22;142;50.652;12.216;2023-04-07T05:33:10;2.10;23.80
148;DHT22;142;50.652;12.216;2023-04-07T05:35:37;2.20;23.70
148;DHT22;142;50.652;12.216;2023-04-07T05:38:05;2.20;23.70
148;DHT22;142;50.652;12.216;2023-04-07T05:40:32;2.30;23.50
148;DHT22;142;50.652;12.216;2023-04-07T05:42:59;2.40;23.60
148;DHT22;142;50.652;12.216;2023-04-07T05:45:28;2.60;23.50
148;DHT22;142;50.652;12.216;2023-04-07T05:47:55;2.70;23.70
148;DHT22;142;50.652;12.216;2023-04-07T05:50:22;2.80;24.00
148;DHT22;142;50.652;12.216;2023-04-07T05:52:50;2.80;23.80
148;DHT22;142;50.652;12.216;2023-04-07T05:55:17;2.80;23.70
148;DHT22;142;50.652;12.216;2023-04-07T05:57:44;2.90;23.60
148;DHT22;142;50.652;12.216;2023-04-07T06:00:13;3.00;23.80
148;DHT22;142;50.652;12.216;2023-04-07T06:02:42;3.10;23.50
148;DHT22;142;50.652;12.216;2023-04-07T06:05:09;3.20;24.10
148;DHT22;142;50.652;12.216;2023-04-07T06:07:36;3.20;23.60
148;DHT22;142;50.652;12.216;2023-04-07T06:10:04;3.40;23.60
148;DHT22;142;50.652;12.216;2023-04-07T06:12:31;3.50;23.70
148;DHT22;142;50.652;12.216;2023-04-07T06:14:59;3.70;23.80
148;DHT22;142;50.652;12.216;2023-04-07T06:17:26;3.90;23.60
148;DHT22;142;50.652;12.216;2023-04-07T06:19:55;4.00;23.80
148;DHT22;142;50.652;12.216;2023-04-07T06:22:23;4.10;23.90
148;DHT22;142;50.652;12.216;2023-04-07T06:24:52;4.20;23.70
148;DHT22;142;50.652;12.216;2023-04-07T06:27:20;4.20;24.10
148;DHT22;142;50.652;12.216;2023-04-07T06:29:47;4.30;24.10
148;DHT22;142;50.652;12.216;2023-04-07T06:32:16;4.30;24.10
148;DHT22;142;50.652;12.216;2023-04-07T06:34:43;4.40;24.10
148;DHT22;142;50.652;12.216;2023-04-07T06:37:13;4.40;24.50
148;DHT22;142;50.652;12.216;2023-04-07T06:39:41;4.40;24.40
148;DHT22;142;50.652;12.216;2023-04-07T06:42:10;4.50;24.60
148;DHT22;142;50.652;12.216;2023-04-07T06:44:37;4.50;26.20
148;DHT22;142;50.652;12.216;2023-04-07T06:47:04;4.60;27.10
148;DHT22;142;50.652;12.216;2023-04-07T06:49:32;4.70;29.50
148;DHT22;142;50.652;12.216;2023-04-07T06:51:59;4.70;31.70
148;DHT22;142;50.652;12.216;2023-04-07T06:54:28;4.80;35.10
148;DHT22;142;50.652;12.216;2023-04-07T06:56:55;4.90;36.40
148;DHT22;142;50.652;12.216;2023-04-07T06:59:23;5.00;38.50
148;DHT22;142;50.652;12.216;2023-04-07T07:01:50;5.00;40.50
148;DHT22;142;50.652;12.216;2023-04-07T07:04:17;5.00;41.30
148;DHT22;142;50.652;12.216;2023-04-07T07:06:44;5.10;41.70
148;DHT22;142;50.652;12.216;2023-04-07T07:09:11;5.30;41.70
148;DHT22;142;50.652;12.216;2023-04-07T07:11:40;5.40;43.20
148;DHT22;142;50.652;12.216;2023-04-07T07:14:08;5.60;43.70
148;DHT22;142;50.652;12.216;2023-04-07T07:16:34;5.70;44.60
148;DHT22;142;50.652;12.216;2023-04-07T07:19:02;5.80;45.60
148;DHT22;142;50.652;12.216;2023-04-07T07:21:29;5.90;46.00
148;DHT22;142;50.652;12.216;2023-04-07T07:23:57;6.10;46.50
148;DHT22;142;50.652;12.216;2023-04-07T07:26:24;6.20;47.30
148;DHT22;142;50.652;12.216;2023-04-07T07:28:53;6.40;48.10
148;DHT22;142;50.652;12.216;2023-04-07T07:31:21;6.50;49.80
148;DHT22;142;50.652;12.216;2023-04-07T07:33:48;6.70;54.30
148;DHT22;142;50.652;12.216;2023-04-07T07:36:16;6.80;57.20
148;DHT22;142;50.652;12.216;2023-04-07T07:38:44;6.90;61.30
148;DHT22;142;50.652;12.216;2023-04-07T07:41:11;7.00;64.20
148;DHT22;142;50.652;12.216;2023-04-07T07:43:38;7.00;68.80
148;DHT22;142;50.652;12.216;2023-04-07T07:46:07;7.10;74.30
148;DHT22;142;50.652;12.216;2023-04-07T07:48:34;7.10;76.00
148;DHT22;142;50.652;12.216;2023-04-07T07:51:02;7.10;78.00
148;DHT22;142;50.652;12.216;2023-04-07T07:53:29;7.30;78.60
148;DHT22;142;50.652;12.216;2023-04-07T07:55:56;7.50;80.80
148;DHT22;142;50.652;12.216;2023-04-07T07:58:23;7.60;84.70
148;DHT22;142;50.652;12.216;2023-04-07T08:00:51;7.70;85.20
148;DHT22;142;50.652;12.216;2023-04-07T08:03:19;7.80;85.30
148;DHT22;142;50.652;12.216;2023-04-07T08:05:48;7.90;84.30
148;DHT22;142;50.652;12.216;2023-04-07T08:08:15;8.00;84.10
148;DHT22;142;50.652;12.216;2023-04-07T08:10:43;8.00;84.20
148;DHT22;142;50.652;12.216;2023-04-07T08:13:10;8.00;83.70
148;DHT22;142;50.652;12.216;2023-04-07T08:15:37;7.90;83.90
148;DHT22;142;50.652;12.216;2023-04-07T08:18:05;7.90;84.50
148;DHT22;142;50.652;12.216;2023-04-07T08:20:34;8.00;84.60
148;DHT22;142;50.652;12.216;2023-04-07T08:23:01;8.10;84.30
148;DHT22;142;50.652;12.216;2023-04-07T08:25:28;8.30;84.10
148;DHT22;142;50.652;12.216;2023-04-07T08:27:55;8.30;83.70
148;DHT22;142;50.652;12.216;2023-04-07T08:30:23;8.40;83.60
148;DHT22;142;50.652;12.216;2023-04-07T08:32:50;8.40;83.50
148;DHT22;142;50.652;12.216;2023-04-07T08:35:17;8.50;83.40
148;DHT22;142;50.652;12.216;2023-04-07T08:37:46;8.50;83.20
148;DHT22;142;50.652;12.216;2023-04-07T08:40:14;8.60;83.00
148;DHT22;142;50.652;12.216;2023-04-07T08:42:43;8.80;82.70
148;DHT22;142;50.652;12.216;2023-04-07T08:45:13;9.00;82.20
148;DHT22;142;50.652;12.216;2023-04-07T08:47:42;9.10;82.10
148;DHT22;142;50.652;12.216;2023-04-07T08:50:11;9.00;81.80
148;DHT22;142;50.652;12.216;2023-04-07T08:52:47;8.90;81.80
148;DHT22;142;50.652;12.216;2023-04-07T08:55:17;8.70;82.60
148;DHT22;142;50.652;12.216;2023-04-07T08:57:45;8.90;82.60
148;DHT22;142;50.652;12.216;2023-04-07T09:00:13;9.00;81.50
148;DHT22;142;50.652;12.216;2023-04-07T09:02:42;9.00;81.70
148;DHT22;142;50.652;12.216;2023-04-07T09:05:10;9.30;81.00
148;DHT22;142;50.652;12.216;2023-04-07T09:07:41;9.60;77.50
148;DHT22;142;50.652;12.216;2023-04-07T09:10:09;9.50;75.00
148;DHT22;142;50.652;12.216;2023-04-07T09:12:40;9.50;74.50
148;DHT22;142;50.652;12.216;2023-04-07T09:15:07;9.60;73.10
148;DHT22;142;50.652;12.216;2023-04-07T09:17:34;9.70;72.50
148;DHT22;142;50.652;12.216;2023-04-07T09:20:02;9.80;72.00
148;DHT22;142;50.652;12.216;2023-04-07T09:22:38;9.80;72.20
148;DHT22;142;50.652;12.216;2023-04-07T09:25:14;10.10;72.10
148;DHT22;142;50.652;12.216;2023-04-07T09:27:55;10.30;70.90
148;DHT22;142;50.652;12.216;2023-04-07T09:30:22;10.60;71.30
148;DHT22;142;50.652;12.216;2023-04-07T09:32:49;10.80;71.90
148;DHT22;142;50.652;12.216;2023-04-07T09:35:16;11.00;71.20
148;DHT22;142;50.652;12.216;2023-04-07T09:37:44;11.10;70.60
148;DHT22;142;50.652;12.216;2023-04-07T09:40:25;11.00;70.80
148;DHT22;142;50.652;12.216;2023-04-07T09:42:54;11.20;70.90
148;DHT22;142;50.652;12.216;2023-04-07T09:45:24;11.30;70.70
148;DHT22;142;50.652;12.216;2023-04-07T09:47:53;11.50;70.30
148;DHT22;142;50.652;12.216;2023-04-07T09:50:33;11.60;69.40
148;DHT22;142;50.652;12.216;2023-04-07T09:53:01;11.60;69.80
148;DHT22;142;50.652;12.216;2023-04-07T09:55:29;11.80;69.40
148;DHT22;142;50.652;12.216;2023-04-07T09:57:58;12.00;68.60
148;DHT22;142;50.652;12.216;2023-04-07T10:00:25;12.20;67.90
148;DHT22;142;50.652;12.216;2023-04-07T10:02:53;12.30;67.80
148;DHT22;142;50.652;12.216;2023-04-07T10:05:21;12.40;66.50
148;DHT22;142;50.652;12.216;2023-04-07T10:07:48;12.40;65.70
148;DHT22;142;50.652;12.216;2023-04-07T10:10:16;12.40;66.00
148;DHT22;142;50.652;12.216;2023-04-07T10:12:43;12.30;66.00
148;DHT22;142;50.652;12.216;2023-04-07T10:15:12;12.40;65.50
148;DHT22;142;50.652;12.216;2023-04-07T10:17:45;12.40;65.00
148;DHT22;142;50.652;12.216;2023-04-07T10:20:14;12.40;65.20
148;DHT22;142;50.652;12.216;2023-04-07T10:22:43;12.40;64.80
148;DHT22;142;50.652;12.216;2023-04-07T10:25:13;12.40;64.90
148;DHT22;142;50.652;12.216;2023-04-07T10:27:46;12.40;64.10
148;DHT22;142;50.652;12.216;2023-04-07T10:30:21;12.40;64.50
148;DHT22;142;50.652;12.216;2023-04-07T10:32:50;12.40;63.60
148;DHT22;142;50.652;12.216;2023-04-07T10:35:17;12.30;64.00
148;DHT22;142;50.652;12.216;2023-04-07T10:38:10;12.30;64.20
148;DHT22;142;50.652;12.216;2023-04-07T10:40:38;12.40;63.90
148;DHT22;142;50.652;12.216;2023-04-07T10:43:07;12.40;62.90
148;DHT22;142;50.652;12.216;2023-04-07T10:45:54;12.50;63.20
148;DHT22;142;50.652;12.216;2023-04-07T10:48:29;12.40;62.40
148;DHT22;142;50.652;12.216;2023-04-07T10:51:12;12.40;62.70
148;DHT22;142;50.652;12.216;2023-04-07T10:57:10;12.50;63.40
148;DHT22;142;50.652;12.216;2023-04-07T10:59:40;12.40;62.60
148;DHT22;142;50.652;12.216;2023-04-07T11:02:32;12.30;63.60
148;DHT22;142;50.652;12.216;2023-04-07T11:05:19;12.40;62.90
148;DHT22;142;50.652;12.216;2023-04-07T11:07:52;12.50;63.10
148;DHT22;142;50.652;12.216;2023-04-07T11:10:23;12.40;62.20
148;DHT22;142;50.652;12.216;2023-04-07T11:13:03;12.40;63.20
148;DHT22;142;50.652;12.216;2023-04-07T11:15:31;12.60;63.10
148;DHT22;142;50.652;12.216;2023-04-07T11:18:17;12.70;62.40
148;DHT22;142;50.652;12.216;2023-04-07T11:20:47;12.80;61.80
148;DHT22;142;50.652;12.216;2023-04-07T11:23:16;12.80;62.10
148;DHT22;142;50.652;12.216;2023-04-07T11:25:44;12.80;60.30
148;DHT22;142;50.652;12.216;2023-04-07T11:28:13;12.80;60.70
148;DHT22;142;50.652;12.216;2023-04-07T11:30:45;12.80;60.20
148;DHT22;142;50.652;12.216;2023-04-07T11:33:17;12.70;62.40
148;DHT22;142;50.652;12.216;2023-04-07T11:35:48;12.80;61.10
148;DHT22;142;50.652;12.216;2023-04-07T11:38:17;13.00;60.60
148;DHT22;142;50.652;12.216;2023-04-07T11:40:44;12.90;61.50
148;DHT22;142;50.652;12.216;2023-04-07T11:43:18;12.90;61.40
148;DHT22;142;50.652;12.216;2023-04-07T11:48:31;12.90;60.60
148;DHT22;142;50.652;12.216;2023-04-07T11:50:59;12.90;60.60
148;DHT22;142;50.652;12.216;2023-04-07T11:53:28;13.00;60.90
148;DHT22;142;50.652;12.216;2023-04-07T11:56:06;13.00;60.60
148;DHT22;142;50.652;12.216;2023-04-07T11:58:36;13.00;64.00
148;DHT22;142;50.652;12.216;2023-04-07T12:01:05;13.10;63.20
148;DHT22;142;50.652;12.216;2023-04-07T12:03:35;13.10;63.10
148;DHT22;142;50.652;12.216;2023-04-07T12:06:04;13.00;62.70
148;DHT22;142;50.652;12.216;2023-04-07T12:08:42;13.00;62.30
148;DHT22;142;50.652;12.216;2023-04-07T12:11:09;13.10;61.40
148;DHT22;142;50.652;12.216;2023-04-07T12:13:37;13.00;61.80
148;DHT22;142;50.652;12.216;2023-04-07T12:16:04;13.00;62.00
148;DHT22;142;50.652;12.216;2023-04-07T12:18:31;13.10;61.10
148;DHT22;142;50.652;12.216;2023-04-07T12:21:00;13.10;60.50
148;DHT22;142;50.652;12.216;2023-04-07T12:23:27;13.10;59.10
148;DHT22;142;50.652;12.216;2023-04-07T12:25:55;13.10;59.00
148;DHT22;142;50.652;12.216;2023-04-07T12:28:22;13.10;59.70
148;DHT22;142;50.652;12.216;2023-04-07T12:30:49;13.10;58.10
148;DHT22;142;50.652;12.216;2023-04-07T12:33:16;13.10;57.80
148;DHT22;142;50.652;12.216;2023-04-07T12:35:44;13.20;58.40
148;DHT22;142;50.652;12.216;2023-04-07T12:38:13;13.30;57.30
148;DHT22;142;50.652;12.216;2023-04-07T12:40:40;13.30;58.90
148;DHT22;142;50.652;12.216;2023-04-07T12:43:08;13.30;59.00
148;DHT22;142;50.652;12.216;2023-04-07T12:45:35;13.30;58.60
148;DHT22;142;50.652;12.216;2023-04-07T12:48:02;13.40;57.70
148;DHT22;142;50.652;12.216;2023-04-07T12:50:29;13.40;59.20
148;DHT22;142;50.652;12.216;2023-04-07T12:52:57;13.40;59.50
148;DHT22;142;50.652;12.216;2023-04-07T12:55:30;13.30;60.70
148;DHT22;142;50.652;12.216;2023-04-07T12:57:58;13.40;59.40
148;DHT22;142;50.652;12.216;2023-04-07T13:00:25;13.40;58.00
148;DHT22;142;50.652;12.216;2023-04-07T13:02:53;13.50;59.20
148;DHT22;142;50.652;12.216;2023-04-07T13:05:21;13.60;59.20
148;DHT22;142;50.652;12.216;2023-04-07T13:07:48;13.70;58.30
148;DHT22;142;50.652;12.216;2023-04-07T13:10:16;13.80;58.20
148;DHT22;142;50.652;12.216;2023-04-07T13:12:44;13.90;59.40
148;DHT22;142;50.652;12.216;2023-04-07T13:15:11;13.90;60.40
148;DHT22;142;50.652;12.216;2023-04-07T13:17:38;14.00;61.80
148;DHT22;142;50.652;12.216;2023-04-07T13:20:06;14.10;61.20
148;DHT22;142;50.652;12.216;2023-04-07T13:22:34;14.10;60.80
148;DHT22;142;50.652;12.216;2023-04-07T13:25:01;14.10;60.60
148;DHT22;142;50.652;12.216;2023-04-07T13:27:29;14.20;60.50
148;DHT22;142;50.652;12.216;2023-04-07T13:29:57;14.30;59.50
148;DHT22;142;50.652;12.216;2023-04-07T13:32:26;14.50;58.30
148;DHT22;142;50.652;12.216;2023-04-07T13:34:53;14.70;56.60
148;DHT22;142;50.652;12.216;2023-04-07T13:37:20;14.90;55.90
148;DHT22;142;50.652;12.216;2023-04-07T13:39:47;14.90;59.30
148;DHT22;142;50.652;12.216;2023-04-07T13:42:16;14.70;59.80
148;DHT22;142;50.652;12.216;2023-04-07T13:44:45;14.70;60.60
148;DHT22;142;50.652;12.216;2023-04-07T13:47:14;14.70;60.50
148;DHT22;142;50.652;12.216;2023-04-07T13:49:45;14.50;59.70
148;DHT22;142;50.652;12.216;2023-04-07T13:52:12;14.30;60.00
148;DHT22;142;50.652;12.216;2023-04-07T13:54:39;14.10;60.30
148;DHT22;142;50.652;12.216;2023-04-07T13:57:06;14.00;59.90
148;DHT22;142;50.652;12.216;2023-04-07T13:59:34;13.70;59.70
148;DHT22;142;50.652;12.216;2023-04-07T14:02:01;13.70;60.50
148;DHT22;142;50.652;12.216;2023-04-07T14:04:29;13.80;60.90
148;DHT22;142;50.652;12.216;2023-04-07T14:06:57;13.80;60.70
148;DHT22;142;50.652;12.216;2023-04-07T14:09:24;13.80;60.40
148;DHT22;142;50.652;12.216;2023-04-07T14:11:51;13.80;60.50
148;DHT22;142;50.652;12.216;2023-04-07T14:14:18;13.70;61.40
148;DHT22;142;50.652;12.216;2023-04-07T14:16:46;13.70;61.40
148;DHT22;142;50.652;12.216;2023-04-07T14:19:15;13.70;60.00
148;DHT22;142;50.652;12.216;2023-04-07T14:21:44;13.80;60.70
148;DHT22;142;50.652;12.216;2023-04-07T14:24:11;13.90;60.30
148;DHT22;142;50.652;12.216;2023-04-07T14:26:38;13.80;60.40
148;DHT22;142;50.652;12.216;2023-04-07T14:29:05;13.80;61.00
148;DHT22;142;50.652;12.216;2023-04-07T14:31:33;13.70;61.50
148;DHT22;142;50.652;12.216;2023-04-07T14:34:00;13.60;60.50
148;DHT22;142;50.652;12.216;2023-04-07T14:36:27;13.60;60.70
148;DHT22;142;50.652;12.216;2023-04-07T14:38:56;13.50;61.70
148;DHT22;142;50.652;12.216;2023-04-07T14:41:24;13.50;61.00
148;DHT22;142;50.652;12.216;2023-04-07T14:43:51;13.20;61.50
148;DHT22;142;50.652;12.216;2023-04-07T14:46:20;13.10;61.40
148;DHT22;142;50.652;12.216;2023-04-07T14:48:48;12.90;62.40
148;DHT22;142;50.652;12.216;2023-04-07T14:51:16;12.80;61.70
148;DHT22;142;50.652;12.216;2023-04-07T14:53:44;12.80;61.60
148;DHT22;142;50.652;12.216;2023-04-07T14:56:12;12.80;61.60
148;DHT22;142;50.652;12.216;2023-04-07T14:58:40;12.80;60.20
148;DHT22;142;50.652;12.216;2023-04-07T15:01:07;12.70;61.10
148;DHT22;142;50.652;12.216;2023-04-07T15:03:34;12.80;60.90
148;DHT22;142;50.652;12.216;2023-04-07T15:06:05;12.80;61.20
148;DHT22;142;50.652;12.216;2023-04-07T15:08:32;12.80;62.00
148;DHT22;142;50.652;12.216;2023-04-07T15:10:59;12.80;62.40
148;DHT22;142;50.652;12.216;2023-04-07T15:13:27;12.80;61.70
148;DHT22;142;50.652;12.216;2023-04-07T15:15:55;13.00;63.90
148;DHT22;142;50.652;12.216;2023-04-07T15:18:22;13.00;63.20
148;DHT22;142;50.652;12.216;2023-04-07T15:20:49;13.00;62.50
148;DHT22;142;50.652;12.216;2023-04-07T15:23:16;13.10;62.40
148;DHT22;142;50.652;12.216;2023-04-07T15:25:43;13.10;62.70
148;DHT22;142;50.652;12.216;2023-04-07T15:28:10;13.10;62.00
148;DHT22;142;50.652;12.216;2023-04-07T15:30:40;13.20;61.30
148;DHT22;142;50.652;12.216;2023-04-07T15:33:07;13.20;61.70
148;DHT22;142;50.652;12.216;2023-04-07T15:35:35;13.10;62.20
148;DHT22;142;50.652;12.216;2023-04-07T15:38:02;13.30;61.80
148;DHT22;142;50.652;12.216;2023-04-07T15:40:29;13.30;61.70
148;DHT22;142;50.652;12.216;2023-04-07T15:42:56;13.30;62.30
148;DHT22;142;50.652;12.216;2023-04-07T15:45:23;13.30;62.40
148;DHT22;142;50.652;12.216;2023-04-07T15:47:52;13.30;62.60
148;DHT22;142;50.652;12.216;2023-04-07T15:50:19;13.20;63.00
148;DHT22;142;50.652;12.216;2023-04-07T15:52:46;12.90;62.90
148;DHT22;142;50.652;12.216;2023-04-07T15:55:13;12.80;63.70
148;DHT22;142;50.652;12.216;2023-04-07T15:57:40;12.90;64.00
148;DHT22;142;50.652;12.216;2023-04-07T16:00:08;12.80;63.70
148;DHT22;142;50.652;12.216;2023-04-07T16:02:35;12.80;63.40
148;DHT22;142;50.652;12.216;2023-04-07T16:05:05;12.80;62.90
148;DHT22;142;50.652;12.216;2023-04-07T16:07:32;12.80;63.60
148;DHT22;142;50.652;12.216;2023-04-07T16:09:59;12.90;65.10
148;DHT22;142;50.652;12.216;2023-04-07T16:12:26;13.00;65.30
148;DHT22;142;50.652;12.216;2023-04-07T16:14:54;12.90;63.70
148;DHT22;142;50.652;12.216;2023-04-07T16:17:21;12.80;64.10
148;DHT22;142;50.652;12.216;2023-04-07T16:19:48;12.60;63.60
148;DHT22;142;50.652;12.216;2023-04-07T16:22:17;12.60;64.40
148;DHT22;142;50.652;12.216;2023-04-07T16:24:44;12.60;65.20
148;DHT22;142;50.652;12.216;2023-04-07T16:27:11;12.60;66.40
148;DHT22;142;50.652;12.216;2023-04-07T16:29:38;12.50;66.70
148;DHT22;142;50.652;12.216;2023-04-07T16:32:06;12.30;67.20
148;DHT22;142;50.652;12.216;2023-04-07T16:34:33;12.30;68.30
148;DHT22;142;50.652;12.216;2023-04-07T16:37:04;12.30;68.30
148;DHT22;142;50.652;12.216;2023-04-07T16:39:33;12.30;68.60
148;DHT22;142;50.652;12.216;2023-04-07T16:42:00;12.30;68.40